3rd gear log--- enginuity - Page 4 - Subaru WRX Forum
Reply
 
LinkBack Thread Tools Display Modes
#46 Old 11-20-2007, 09:55 AM
WRXpert
 
dumdum's Avatar
 
Join Date: Sep 2004
Location: Virginia
Posts: 2,800
Images: 12
dumdum is a WRX tech God, pay attention dumdum is a WRX tech God, pay attention dumdum is a WRX tech God, pay attention dumdum is a WRX tech God, pay attention dumdum is a WRX tech God, pay attention dumdum is a WRX tech God, pay attention dumdum is a WRX tech God, pay attention dumdum is a WRX tech God, pay attention
Quote:
Originally Posted by Longshot View Post
OK will do. Yeah I realized I wasn't hitting target on the other as well. Are you tweaking the map with those parameter changes and sending it to me so i can include Air Intake temp? Or should I log it with the current map you provided and make those changes in one shot?
Just include it on your next log.I just sent you a revised map with slight changes to both primary wastegate duty cycle and IAT wastegate compensation.

Homebrewed tuned with Opensource!
dumdum is offline  
Sponsored Links
Advertisement
 
#47 Old 11-20-2007, 10:04 AM
WRXtuners Member
 
Longshot's Avatar
 
Join Date: Aug 2007
Location: Connecticut
Posts: 1,119
Images: 5
Longshot is a helpful contributing member
Send a message via AIM to Longshot
Quote:
Originally Posted by dumdum View Post
Just include it on your next log.I just sent you a revised map with slight changes to both primary wastegate duty cycle and IAT wastegate compensation.
OK will do, I'll send you an email tonight. Thanks,
Mike

Mike
DTRacing Tuned
Longshot is offline  
#48 Old 11-20-2007, 11:12 AM
WRXtuners Member
 
Join Date: Sep 2006
Location: Pennsylvania
Posts: 285
Images: 14
Labukas19 is more helpful than not
Quote:
Originally Posted by dumdum View Post
Do you have the most recent logger definitions for Enginuity?
probably not.. thought i did.. but obviously not then... is it just on the new part of their website? oh and enginuity isnt working..... can you email me the logging defs? are they tuning defs also? also i just got to manage deffs. remove old ones and add new ones right? thanks!

2001 COBRA

Last edited by Labukas19; 11-20-2007 at 05:08 PM.
Labukas19 is offline  
#49 Old 11-20-2007, 06:01 PM
WRXtuners Member
 
Join Date: Sep 2006
Location: Pennsylvania
Posts: 285
Images: 14
Labukas19 is more helpful than not
Code:
Time,       (rpm), Timing, IAM, (mph), KC,    Load  , a/f , (psi)
08:45:37.890, 2563,   11.50,  16, 36,  0.00,  0.23,  23.43,  -11.61
08:45:38.071, 2628,   12.00,  16, 36,  0.00,  1.70,  23.66,  -0.87
08:45:38.211, 2529,   26.00,  16, 36,  9.50,  2.05,  21.71,  0.58
08:45:38.351, 2656,   23.50,  16, 36,  9.50,  2.22,  14.93,  1.45
08:45:38.501, 2650,   19.50,  16, 35,  9.50,  2.39,  13.21,  2.61
08:45:38.642, 2694,   17.50,  16, 35,  9.50,  2.63,  12.63,  4.35
08:45:38.782, 2705,   14.50,  16, 35,  9.00,  2.93,  12.52,  5.95
08:45:38.932, 2781,   13.00,  16, 35,  8.00,  3.25,  11.94,  7.55
08:45:39.072, 2842,   12.00,  16, 36,  8.00,  3.65,  11.71,  9.58
08:45:39.212, 2886,   10.50,  16, 36,  8.00,  4.09,  11.25,  11.90
08:45:39.363, 2933,   10.50,  16, 36,  8.00,  4.43,  11.25,  14.36
08:45:39.503, 3062,   10.00,  16, 38,  8.00,  4.51,  11.25,  16.40
08:45:39.653, 3113,   10.00,  16, 38,  8.00,  4.46,  11.25,  16.54
08:45:39.793, 3168,   10.00,  16, 38,  8.00,  4.43,  11.25,  16.54
08:45:39.933, 3216,   10.00,  16, 40,  8.00,  4.44,  11.25,  16.40
08:45:40.084, 3317,   9.50,   16, 40,  8.00,  4.50,  11.25,  16.40
08:45:40.224, 3402,   9.00,   16, 40,  8.00,  4.63,  11.25,  16.98
08:45:40.374, 3461,   9.00,   16, 43,  8.00,  4.69,  11.25,  17.12
08:45:40.514, 3586,   8.50,   16, 43,  8.00,  4.67,  11.25,  16.83
08:45:40.654, 3648,   8.50,   16, 43,  8.00,  4.68,  11.25,  16.83
08:45:40.805, 3716,   8.50,   16, 43,  8.00,  4.67,  11.25,  16.83
08:45:40.945, 3797,   8.50,   16, 46,  8.00,  4.69,  11.25,  16.83
08:45:41.085, 3844,   8.50,   16, 46,  8.00,  4.68,  11.25,  16.98
08:45:41.235, 3933,   8.50,   16, 46,  8.00,  4.69,  11.25,  16.98
08:45:41.375, 4026,   8.50,   16, 50,  8.00,  4.67,  11.25,  17.12
08:45:41.526, 4056,   8.50,   16, 50,  8.00,  4.66,  11.25,  17.12
08:45:41.666, 4160,   9.00,   16, 50,  8.00,  4.69,  11.25,  17.12
08:45:41.806, 4240,   9.50,   16, 53,  8.00,  4.70,  11.25,  17.12
08:45:41.956, 4320,   9.50,   16, 53,  8.00,  4.75,  11.25,  17.12
08:45:42.097, 4370,   9.50,   16, 53,  8.00,  4.80,  11.25,  17.27
08:45:42.237, 4448,   9.50,   16, 53,  8.00,  4.80,  11.25,  17.27
08:45:42.387, 4504,   10.00,  16, 57,  8.00,  4.77,  11.25,  17.41
08:45:42.527, 4590,   10.00,  16, 57,  8.00,  4.75,  11.25,  17.41
08:45:42.677, 4670,   10.50,  16, 57,  8.00,  4.75,  11.25,  17.27
08:45:42.818, 4752,   10.50,  16, 60,  8.00,  4.75,  11.25,  17.27
08:45:42.958, 4808,   10.50,  16, 60,  8.00,  4.73,  11.25,  16.98
08:45:43.108, 4908,   10.50,  16, 60,  8.00,  4.70,  11.25,  16.83
08:45:43.258, 4986,   10.50,  16, 63,  8.00,  4.68,  11.25,  16.69
08:45:43.398, 5050,   10.50,  16, 63,  8.00,  4.69,  11.25,  16.40
08:45:43.539, 5126,   10.50,  16, 63,  8.00,  4.65,  11.25,  16.11
08:45:43.679, 5169,   10.50,  16, 66,  8.00,  4.62,  11.25,  15.96
08:45:43.829, 5222,   10.50,  16, 66,  8.00,  4.58,  11.25,  15.82
08:45:43.969, 5263,   10.50,  16, 66,  8.00,  4.59,  11.25,  15.67
08:45:44.119, 5361,   11.50,  16, 66,  8.00,  4.57,  11.25,  15.53
08:45:44.260, 5392,   11.50,  16, 70,  8.00,  4.55,  11.25,  15.53
08:45:44.400, 5474,   11.50,  16, 70,  8.00,  4.54,  11.25,  15.38
08:45:44.540, 5535,   12.00,  16, 70,  8.00,  4.54,  11.25,  15.24
08:45:44.690, 5622,   12.00,  16, 73,  8.00,  4.51,  11.25,  15.09
08:45:44.840, 5677,   12.50,  16, 73,  8.00,  4.47,  11.25,  15.24
08:45:44.981, 5725,   13.00,  16, 73,  8.00,  4.45,  11.25,  14.95
08:45:45.131, 5747,   13.00,  16, 76,  8.00,  4.42,  11.25,  14.95
08:45:45.281, 5836,   13.00,  16, 76,  8.00,  4.41,  11.25,  14.80
08:45:45.421, 5910,   13.50,  16, 76,  8.00,  4.37,  11.25,  14.80
08:45:45.572, 5986,   14.00,  16, 78,  8.00,  4.33,  11.25,  14.51
08:45:45.712, 6014,   14.00,  16, 78,  8.00,  4.29,  11.25,  14.51
08:45:45.862, 6024,   14.00,  16, 78,  8.00,  4.28,  11.25,  14.36
08:45:46.002, 6162,   14.50,  16, 78,  8.00,  4.25,  11.25,  14.22
08:45:46.142, 6193,   14.50,  16, 81,  8.00,  4.20,  11.25,  14.22
08:45:46.293, 6208,   16.50,  16, 81,  8.00,  4.18,  11.25,  13.93
08:45:46.433, 6318,   17.00,  16, 81,  8.00,  4.13,  11.25,  13.93
08:45:46.573, 6324,   17.50,  16, 83,  8.00,  4.12,  11.25,  13.78
08:45:46.723, 6404,   17.50,  16, 83,  8.00,  4.09,  11.25,  13.93
08:45:46.863, 6454,   18.00,  16, 83,  8.00,  2.94,  11.25,  13.78
08:45:47.014, 6239,   11.50,  16, 86,  0.00,  0.20,  11.25,  -1.60
08:45:47.154, 6214,   11.50,  16, 86,  0.00,  0.32,  11.94,  -9.87
08:45:47.294, 6460,   11.50,  16, 86,  0.00,  0.39,  24.46,  -9.87
08:45:47.444, 6271,   11.50,  16, 87,  0.00,  0.41,  25.38,  -10.16
08:45:47.584, 6281,   11.50,  16, 87,  0.00,  0.41,  24.46,  -10.16
08:45:47.725, 6345,   11.50,  16, 87,  0.00,  0.41,  24.46,  -10.30
08:45:47.875, 6266,   11.50,  16, 87,  0.00,  0.41,  24.69,  -10.30
08:45:48.015, 5990,   11.50,  16, 88,  0.00,  0.43,  24.69,  -10.30
08:45:48.165, 5774,   11.50,  16, 88,  0.00,  0.43,  23.66,  -10.45
08:45:48.305, 5399,   11.50,  16, 88,  0.00,  0.43,  24.12,  -10.59
08:45:48.446, 5126,   11.50,  16, 86,  0.00,  0.43,  24.23,  -10.74
08:45:48.596, 4851,   11.50,  16, 86,  0.00,  0.31,  24.46,  -11.90
08:45:48.736, 4601,   11.50,  16, 86,  0.00,  0.40,  23.89,  -10.88
08:45:48.876, 4335,   11.50,  16, 84,  0.00,  0.39,  24.12,  -10.74
08:45:49.037, 4078,   11.50,  16, 84,  0.00,  0.38,  24.35,  -10.59
08:45:49.187, 4123,   11.50,  16, 84,  0.00,  0.32,  24.46,  -10.88
08:45:49.327, 4071,   11.50,  16, 81,  0.00,  0.28,  24.35,  -11.17
08:45:49.477, 4015,   11.50,  16, 81,  0.00,  0.24,  23.77,  -11.46
well heres my 91 octane stage 2 log.. (i run 93 oct. yet)
i added my a/f for no particular reason.. (not a wide band!!!)
i think everything looks good but! the boost fluctuates a little it looks how do i go about fixing that.. (i am 2.5 turns in on the WG) turn back some and up the wg dc? if so how do i do that? also it seems every other log i look at has more timing then me.. i know its not global timing or anything but mine dips down to 8.50* am i reading that right? and sorry the log kinda starts high.. but there was traffic behind me lol.. thanks!
and no fine, or feedback yet until i get the logger updates.. which i think i have on my desktop but not on my laptop...

2001 COBRA
Labukas19 is offline  
#50 Old 11-20-2007, 07:31 PM
WRXpert
 
dumdum's Avatar
 
Join Date: Sep 2004
Location: Virginia
Posts: 2,800
Images: 12
dumdum is a WRX tech God, pay attention dumdum is a WRX tech God, pay attention dumdum is a WRX tech God, pay attention dumdum is a WRX tech God, pay attention dumdum is a WRX tech God, pay attention dumdum is a WRX tech God, pay attention dumdum is a WRX tech God, pay attention dumdum is a WRX tech God, pay attention
Quote:
Originally Posted by Labukas19 View Post
i think everything looks good but! the boost fluctuates a little it looks how do i go about fixing that.. (i am 2.5 turns in on the WG) turn back some and up the wg dc? if so how do i do that? also it seems every other log i look at has more timing then me.. i know its not global timing or anything but mine dips down to 8.50* am i reading that right? and sorry the log kinda starts high.. but there was traffic behind me lol.. thanks!
and no fine, or feedback yet until i get the logger updates.. which i think i have on my desktop but not on my laptop...
I will send you the newest definitions in the morning if you don't have them.My laptop is at work.As for timing,you are reading it wrong.Ignition timing+KC+IAM=total timing.I would send the log to Braden/XPT and let them fix it.

Homebrewed tuned with Opensource!
dumdum is offline  
#51 Old 11-20-2007, 08:11 PM
WRXtuners Member
 
Join Date: Sep 2006
Location: Pennsylvania
Posts: 285
Images: 14
Labukas19 is more helpful than not
he looked at it and said it looks great. just had to back off the wg arm a lil and up the wgdc...

2001 COBRA
Labukas19 is offline  
#52 Old 11-21-2007, 10:11 AM
WRXtuners Member
 
Join Date: Sep 2006
Location: Michigan
Posts: 53
Images: 1
arm0313 is an unknown
Off subject a bit.

Anyone know what happened to the Enginuity website?
arm0313 is offline  
#53 Old 11-21-2007, 11:44 AM
WRXpert
 
dumdum's Avatar
 
Join Date: Sep 2004
Location: Virginia
Posts: 2,800
Images: 12
dumdum is a WRX tech God, pay attention dumdum is a WRX tech God, pay attention dumdum is a WRX tech God, pay attention dumdum is a WRX tech God, pay attention dumdum is a WRX tech God, pay attention dumdum is a WRX tech God, pay attention dumdum is a WRX tech God, pay attention dumdum is a WRX tech God, pay attention
Quote:
Originally Posted by arm0313 View Post
Off subject a bit.

Anyone know what happened to the Enginuity website?
They are having some issues with the site.

Homebrewed tuned with Opensource!
dumdum is offline  
Reply


Currently Active Users Viewing This Thread: 1 (0 members and 1 guests)
 
Thread Tools
Show Printable Version Show Printable Version
Email this Page Email this Page
Display Modes
Linear Mode Linear Mode



Posting Rules  
You may not post new threads
You may not post replies
You may not post attachments
You may not edit your posts

BB code is On
Smilies are On
[IMG] code is On
HTML code is On
Trackbacks are On
Pingbacks are On
Refbacks are On